Time;durP1;ratioP1;P1;durP2;ratioP2;P2;SDS_P1;SDS_P2;PMS_P1;PMS_P2;Temp;Humidity;BMP_temperature;BMP_pressure;BME280_temperature;BME280_humidity;BME280_pressure;Samples;Min_cycle;Max_cycle;Signal;HPM_P1;HPM_P2
2023/08/16 00:02:02;;;;;;;4.93;1.65;;;14.60;99.90;;;;;;5053322;28;20044;-52
2023/08/16 00:04:28;;;;;;;6.25;1.90;;;14.60;99.90;;;;;;5053778;28;20132;-56
2023/08/16 00:06:54;;;;;;;3.58;1.77;;;14.60;99.90;;;;;;5053491;28;20122;-53
2023/08/16 00:09:20;;;;;;;2.95;1.38;;;14.60;99.90;;;;;;5053537;28;20021;-47
2023/08/16 00:11:47;;;;;;;4.97;1.50;;;14.60;99.90;;;;;;5053401;28;20029;-53
2023/08/16 00:14:12;;;;;;;5.65;1.67;;;14.50;99.90;;;;;;5053615;28;20024;-52
2023/08/16 00:16:38;;;;;;;5.97;1.58;;;14.50;99.90;;;;;;5053333;28;20104;-55
2023/08/16 00:19:04;;;;;;;3.80;1.60;;;14.50;99.90;;;;;;5053346;28;20020;-51
2023/08/16 00:21:29;;;;;;;3.03;1.45;;;14.40;99.90;;;;;;5053492;28;20083;-51
2023/08/16 00:23:55;;;;;;;5.03;1.40;;;14.40;99.90;;;;;;5053089;28;20039;-48
2023/08/16 00:26:21;;;;;;;4.97;1.50;;;14.40;99.90;;;;;;5053431;28;20020;-53
2023/08/16 00:28:48;;;;;;;2.92;1.40;;;14.30;99.90;;;;;;5053211;28;20032;-49
2023/08/16 00:31:14;;;;;;;3.33;1.52;;;14.30;99.90;;;;;;5053060;28;20547;-50
2023/08/16 00:33:40;;;;;;;2.42;1.23;;;14.30;99.90;;;;;;5053075;28;20029;-48
2023/08/16 00:36:07;;;;;;;2.38;1.17;;;14.20;99.90;;;;;;5053004;28;20029;-57
2023/08/16 00:38:33;;;;;;;2.72;1.70;;;14.20;99.90;;;;;;5053336;28;20039;-57
2023/08/16 00:40:59;;;;;;;1.60;1.08;;;14.20;99.90;;;;;;5052910;28;20051;-51
2023/08/16 00:43:25;;;;;;;2.72;1.13;;;14.10;99.90;;;;;;5052397;28;20033;-54
2023/08/16 00:45:50;;;;;;;5.20;1.50;;;14.10;99.90;;;;;;5052727;28;20071;-51
2023/08/16 00:48:17;;;;;;;4.53;1.42;;;14.10;99.90;;;;;;5052712;28;20045;-54
2023/08/16 00:50:44;;;;;;;2.10;1.27;;;14.00;99.90;;;;;;5051599;28;20032;-47
2023/08/16 00:53:11;;;;;;;3.03;1.42;;;14.00;99.90;;;;;;5052775;28;20037;-52
2023/08/16 00:55:37;;;;;;;3.20;1.38;;;14.00;99.90;;;;;;5045073;28;20075;-51
2023/08/16 00:58:03;;;;;;;2.35;1.30;;;13.90;99.90;;;;;;5046805;28;20389;-51
2023/08/16 01:00:29;;;;;;;2.35;1.30;;;13.90;99.90;;;;;;5052399;28;20029;-54
2023/08/16 01:02:55;;;;;;;3.20;1.73;;;14.00;99.90;;;;;;5052807;28;20048;-55
2023/08/16 01:05:21;;;;;;;2.30;1.17;;;13.90;99.90;;;;;;5052408;28;20405;-52
2023/08/16 01:07:46;;;;;;;3.05;1.42;;;14.00;99.90;;;;;;5052563;28;20104;-48
2023/08/16 01:10:12;;;;;;;5.78;1.83;;;14.00;99.90;;;;;;5052378;28;20104;-47
2023/08/16 01:12:46;;;;;;;3.53;1.38;;;13.90;99.90;;;;;;5052326;28;20056;-50
2023/08/16 01:15:12;;;;;;;3.25;1.45;;;13.90;99.90;;;;;;5052037;28;20025;-50
2023/08/16 01:17:39;;;;;;;5.10;1.20;;;14.00;99.90;;;;;;5052309;28;20029;-48
2023/08/16 01:20:07;;;;;;;6.85;2.00;;;14.00;99.90;;;;;;5052347;28;20478;-48
2023/08/16 01:23:06;;;;;;;2.50;1.45;;;14.00;99.90;;;;;;5051930;28;20405;-53
2023/08/16 01:25:47;;;;;;;3.08;1.60;;;13.90;99.90;;;;;;5051967;28;20040;-51
2023/08/16 01:28:14;;;;;;;6.88;1.33;;;13.90;99.90;;;;;;5052232;28;20120;-52
2023/08/16 01:30:41;;;;;;;4.00;1.50;;;13.90;99.90;;;;;;5051868;28;20033;-52
2023/08/16 01:33:08;;;;;;;3.20;1.52;;;13.90;99.90;;;;;;5052154;28;20048;-50
2023/08/16 01:35:35;;;;;;;3.88;1.58;;;13.80;99.90;;;;;;5052018;28;20024;-52
2023/08/16 01:38:01;;;;;;;2.63;1.42;;;13.80;99.90;;;;;;5051868;28;20039;-52
2023/08/16 01:40:33;;;;;;;5.03;1.55;;;13.80;99.90;;;;;;5051893;28;20074;-54
2023/08/16 01:43:00;;;;;;;2.17;1.13;;;13.80;99.90;;;;;;5051761;28;20370;-51
2023/08/16 01:45:27;;;;;;;2.22;1.20;;;13.70;99.90;;;;;;5051783;28;20021;-47
2023/08/16 01:47:53;;;;;;;2.75;1.30;;;13.60;99.90;;;;;;5051562;28;20052;-49
2023/08/16 01:50:19;;;;;;;4.28;1.38;;;13.60;99.90;;;;;;5051691;28;20103;-55
2023/08/16 01:52:46;;;;;;;4.03;1.70;;;13.60;99.90;;;;;;5051748;28;20112;-50
2023/08/16 01:55:12;;;;;;;5.85;1.40;;;13.50;99.90;;;;;;5050938;28;20409;-54
2023/08/16 01:57:37;;;;;;;2.15;1.15;;;13.60;99.90;;;;;;5051554;28;20472;-53
2023/08/16 02:00:04;;;;;;;3.15;1.30;;;13.60;99.90;;;;;;5051324;28;20082;-48
2023/08/16 02:02:30;;;;;;;3.15;1.50;;;13.50;99.90;;;;;;5051530;28;20029;-46
2023/08/16 02:04:55;;;;;;;2.88;1.35;;;13.50;99.90;;;;;;5051410;28;20029;-47
2023/08/16 02:07:21;;;;;;;3.60;1.58;;;13.50;99.90;;;;;;5050996;28;20031;-50
2023/08/16 02:09:47;;;;;;;2.85;1.40;;;13.50;99.90;;;;;;5051587;28;20100;-54
2023/08/16 02:12:13;;;;;;;3.42;1.63;;;13.50;99.90;;;;;;5051009;28;20059;-49
2023/08/16 02:14:38;;;;;;;2.85;1.55;;;13.40;99.90;;;;;;5049463;28;20021;-51
2023/08/16 02:17:04;;;;;;;3.70;1.50;;;13.40;99.90;;;;;;5050881;28;20028;-47
2023/08/16 02:19:29;;;;;;;2.60;1.42;;;13.40;99.90;;;;;;5042283;28;20502;-48
2023/08/16 02:21:55;;;;;;;3.45;1.60;;;13.40;99.90;;;;;;5045977;28;20040;-54
2023/08/16 02:24:20;;;;;;;6.10;1.67;;;13.30;99.90;;;;;;5051126;28;20028;-51
2023/08/16 02:26:46;;;;;;;2.63;1.40;;;13.30;99.90;;;;;;5051053;28;20095;-53
2023/08/16 02:29:12;;;;;;;5.65;2.10;;;13.30;99.90;;;;;;5051192;28;20017;-51
2023/08/16 02:31:37;;;;;;;6.63;2.28;;;13.30;99.90;;;;;;5050601;28;20524;-47
2023/08/16 02:34:03;;;;;;;2.88;1.50;;;13.30;99.90;;;;;;5050982;28;20025;-54
2023/08/16 02:36:28;;;;;;;7.45;1.90;;;13.40;99.90;;;;;;5050869;28;20064;-51
2023/08/16 02:38:54;;;;;;;4.43;1.65;;;13.30;99.90;;;;;;5050901;28;20021;-59
2023/08/16 02:41:20;;;;;;;3.42;1.48;;;13.30;99.90;;;;;;5050735;28;20223;-47
2023/08/16 02:43:45;;;;;;;3.33;1.75;;;13.20;99.90;;;;;;5050625;28;20043;-50
2023/08/16 02:46:11;;;;;;;5.25;2.08;;;13.30;99.90;;;;;;5050563;28;20063;-50
2023/08/16 02:48:36;;;;;;;6.45;1.92;;;13.20;99.90;;;;;;5050400;28;20045;-52
2023/08/16 02:51:02;;;;;;;2.90;1.70;;;13.20;99.90;;;;;;5050600;28;20120;-51
2023/08/16 02:53:28;;;;;;;10.35;2.55;;;13.20;99.90;;;;;;5050585;28;20393;-48
2023/08/16 02:55:53;;;;;;;10.77;2.50;;;13.20;99.90;;;;;;5050944;28;20036;-48
2023/08/16 02:58:19;;;;;;;5.15;2.13;;;13.20;99.90;;;;;;5050837;28;20017;-52
2023/08/16 03:00:44;;;;;;;5.47;1.90;;;13.30;99.90;;;;;;5050159;28;20018;-48
2023/08/16 03:03:10;;;;;;;4.00;1.70;;;13.30;99.90;;;;;;5050456;28;20064;-54
2023/08/16 03:05:35;;;;;;;4.38;1.75;;;13.20;99.90;;;;;;5050204;28;20025;-47
2023/08/16 03:08:01;;;;;;;3.67;1.45;;;13.30;99.90;;;;;;5050526;28;20037;-46
2023/08/16 03:10:27;;;;;;;2.53;1.27;;;13.20;99.90;;;;;;5050427;28;20047;-50
2023/08/16 03:12:52;;;;;;;4.97;1.88;;;13.20;99.90;;;;;;5050570;28;20070;-48
2023/08/16 03:15:18;;;;;;;3.08;1.30;;;13.20;99.90;;;;;;5050298;28;20037;-54
2023/08/16 03:17:44;;;;;;;7.38;1.73;;;13.20;99.90;;;;;;5050410;28;20381;-50
2023/08/16 03:20:09;;;;;;;4.80;2.15;;;13.10;99.90;;;;;;5049008;28;20112;-51
2023/08/16 03:22:35;;;;;;;3.58;1.80;;;13.10;99.90;;;;;;5050094;28;20494;-52
2023/08/16 03:25:01;;;;;;;3.42;1.60;;;13.10;99.90;;;;;;5050389;28;20029;-51
2023/08/16 03:27:26;;;;;;;5.22;1.85;;;13.00;99.90;;;;;;5050453;28;20789;-57
2023/08/16 03:29:52;;;;;;;4.03;1.70;;;13.10;99.90;;;;;;5050081;28;20588;-50
2023/08/16 03:32:18;;;;;;;4.00;1.75;;;13.00;99.90;;;;;;5050310;28;20029;-51
2023/08/16 03:34:44;;;;;;;3.92;1.40;;;13.00;99.90;;;;;;5050127;28;20395;-53
2023/08/16 03:37:10;;;;;;;7.13;1.70;;;13.00;99.90;;;;;;5050210;28;20017;-52
2023/08/16 03:39:36;;;;;;;2.45;1.42;;;13.00;99.90;;;;;;5050040;28;20029;-47
2023/08/16 03:42:01;;;;;;;2.08;1.20;;;13.00;99.90;;;;;;5048975;28;20516;-52
2023/08/16 03:44:27;;;;;;;2.72;1.25;;;13.00;99.90;;;;;;5050245;28;20029;-49
2023/08/16 03:46:52;;;;;;;6.95;1.70;;;13.00;99.90;;;;;;5049674;28;20425;-55
2023/08/16 03:49:18;;;;;;;2.78;1.60;;;13.00;99.90;;;;;;5049804;28;20123;-54
2023/08/16 03:51:43;;;;;;;4.25;1.45;;;13.00;99.90;;;;;;5049857;28;20039;-50
2023/08/16 03:54:09;;;;;;;3.83;1.52;;;13.00;99.90;;;;;;5035303;28;20037;-48
2023/08/16 03:56:35;;;;;;;1.65;0.98;;;13.00;99.90;;;;;;5035179;28;20087;-52
2023/08/16 03:59:00;;;;;;;2.55;1.38;;;13.00;99.90;;;;;;5030106;28;20017;-48
2023/08/16 04:01:26;;;;;;;3.22;1.80;;;13.00;99.90;;;;;;5035038;28;20037;-50
2023/08/16 04:03:51;;;;;;;2.10;1.20;;;13.00;99.90;;;;;;5028446;28;20025;-53
2023/08/16 04:06:20;;;;;;;3.75;1.42;;;13.00;99.90;;;;;;5035166;28;20476;-49
2023/08/16 04:08:46;;;;;;;4.00;1.70;;;13.00;99.90;;;;;;5035047;28;20021;-51
2023/08/16 04:11:12;;;;;;;3.72;1.50;;;13.00;99.90;;;;;;5030522;28;20033;-50
2023/08/16 04:13:37;;;;;;;4.18;1.50;;;13.00;99.90;;;;;;5036251;28;20049;-49
2023/08/16 04:16:03;;;;;;;4.97;1.70;;;13.00;99.90;;;;;;5029939;28;20022;-49
2023/08/16 04:18:29;;;;;;;4.78;1.35;;;13.00;99.90;;;;;;5033784;28;20036;-54
2023/08/16 04:20:55;;;;;;;3.33;1.48;;;13.00;99.90;;;;;;5035613;28;20025;-54
2023/08/16 04:23:22;;;;;;;5.07;1.42;;;13.00;99.90;;;;;;5041185;28;20021;-53
2023/08/16 04:25:48;;;;;;;4.30;1.52;;;13.00;99.90;;;;;;5053466;28;20056;-48
2023/08/16 04:28:13;;;;;;;4.90;1.73;;;12.90;99.90;;;;;;5053159;28;20110;-51
2023/08/16 04:30:39;;;;;;;3.47;1.65;;;12.90;99.90;;;;;;5053391;28;20055;-54
2023/08/16 04:33:04;;;;;;;4.15;1.67;;;12.80;99.90;;;;;;5053216;28;20112;-50
2023/08/16 04:35:30;;;;;;;6.60;1.38;;;12.90;99.90;;;;;;5053218;28;20025;-50
2023/08/16 04:37:56;;;;;;;2.58;1.45;;;12.90;99.90;;;;;;5053325;28;20017;-49
2023/08/16 04:40:21;;;;;;;2.47;1.33;;;12.80;99.90;;;;;;5052986;28;20028;-48
2023/08/16 04:42:47;;;;;;;4.43;1.20;;;12.70;99.90;;;;;;5053092;28;20118;-54
2023/08/16 04:45:12;;;;;;;2.63;1.13;;;12.70;99.90;;;;;;5052823;28;20021;-53
2023/08/16 04:47:38;;;;;;;2.83;1.45;;;12.70;99.90;;;;;;5052814;28;20056;-53
2023/08/16 04:50:06;;;;;;;2.38;1.13;;;12.60;99.90;;;;;;5052792;28;20485;-50
2023/08/16 04:52:33;;;;;;;3.05;1.25;;;12.50;99.90;;;;;;5053048;28;20033;-52
2023/08/16 04:54:59;;;;;;;2.33;1.35;;;12.40;99.90;;;;;;5052844;28;20021;-51
2023/08/16 04:57:24;;;;;;;4.32;1.70;;;12.40;99.90;;;;;;5052381;28;20497;-50
2023/08/16 04:59:50;;;;;;;3.05;1.50;;;12.40;99.90;;;;;;5038602;28;20036;-50
2023/08/16 05:02:16;;;;;;;3.35;1.67;;;12.40;99.90;;;;;;5040307;28;20087;-47
2023/08/16 05:04:42;;;;;;;4.05;1.58;;;12.40;99.90;;;;;;5038344;28;20548;-53
2023/08/16 05:07:07;;;;;;;4.07;1.88;;;12.30;99.90;;;;;;5034361;28;20040;-47
2023/08/16 05:09:33;;;;;;;2.90;1.45;;;12.30;99.90;;;;;;5040289;28;20026;-48
2023/08/16 05:11:58;;;;;;;2.28;1.02;;;12.30;99.90;;;;;;5040105;28;20055;-52
2023/08/16 05:14:24;;;;;;;2.38;1.35;;;12.30;99.90;;;;;;5033905;28;20033;-50
2023/08/16 05:16:49;;;;;;;3.28;1.52;;;12.30;99.90;;;;;;5038441;28;20037;-52
2023/08/16 05:19:15;;;;;;;3.33;1.70;;;12.40;99.90;;;;;;5040059;28;20482;-53
2023/08/16 05:21:41;;;;;;;2.17;1.35;;;11.00;99.90;;;;;;5040173;28;20075;-54
2023/08/16 05:24:08;;;;;;;3.20;1.48;;;12.40;99.90;;;;;;5052396;28;20021;-46
2023/08/16 05:26:33;;;;;;;5.28;1.20;;;12.50;99.90;;;;;;5052347;28;20555;-46
2023/08/16 05:28:59;;;;;;;2.47;1.25;;;12.50;99.90;;;;;;5051249;28;20025;-49
2023/08/16 05:31:25;;;;;;;1.75;1.00;;;13.30;99.90;;;;;;5051797;28;20021;-51
2023/08/16 05:33:51;;;;;;;1.67;0.95;;;12.60;99.90;;;;;;5052040;28;20481;-47
2023/08/16 05:36:17;;;;;;;1.80;1.00;;;12.70;99.90;;;;;;5051994;28;20017;-46
2023/08/16 05:38:42;;;;;;;2.92;1.20;;;12.70;99.90;;;;;;5050810;28;20028;-46
2023/08/16 05:41:08;;;;;;;2.05;1.20;;;12.80;99.90;;;;;;5051831;28;20489;-46
2023/08/16 05:43:34;;;;;;;3.92;1.40;;;12.80;99.90;;;;;;5051788;28;20049;-51
2023/08/16 05:45:59;;;;;;;1.92;1.10;;;12.90;99.90;;;;;;5051821;28;20025;-50
2023/08/16 05:48:25;;;;;;;3.67;1.40;;;12.90;99.90;;;;;;5051587;28;20044;-51
2023/08/16 05:50:51;;;;;;;2.00;1.30;;;13.00;99.90;;;;;;5052083;28;20025;-50
2023/08/16 05:53:16;;;;;;;2.50;1.40;;;12.30;99.90;;;;;;5051602;28;20108;-49
2023/08/16 05:55:42;;;;;;;2.75;1.60;;;13.10;99.90;;;;;;5051926;28;20082;-46
2023/08/16 05:58:08;;;;;;;3.90;1.70;;;13.10;99.90;;;;;;5051790;28;20021;-47
2023/08/16 06:00:34;;;;;;;3.92;1.33;;;13.20;99.90;;;;;;5051725;28;20374;-50
2023/08/16 06:03:00;;;;;;;2.55;1.48;;;13.30;99.90;;;;;;5051572;28;20041;-51
2023/08/16 06:05:26;;;;;;;3.15;1.25;;;14.20;99.90;;;;;;5051462;28;20024;-52
2023/08/16 06:07:51;;;;;;;3.10;1.50;;;14.20;99.90;;;;;;5051602;28;20033;-48
2023/08/16 06:10:17;;;;;;;2.40;1.30;;;14.20;99.90;;;;;;5051403;28;20029;-52
2023/08/16 06:12:43;;;;;;;3.45;1.55;;;13.60;99.90;;;;;;5051471;28;20039;-53
2023/08/16 06:15:11;;;;;;;5.25;2.20;;;14.80;99.90;;;;;;5051174;28;20021;-47
2023/08/16 06:17:40;;;;;;;4.25;1.88;;;13.80;99.90;;;;;;5051457;28;20496;-50
2023/08/16 06:20:07;;;;;;;3.17;1.88;;;14.60;99.90;;;;;;5051446;28;20028;-51
2023/08/16 06:22:34;;;;;;;3.15;1.77;;;15.30;99.90;;;;;;5050943;28;20035;-54
2023/08/16 06:24:59;;;;;;;4.78;1.77;;;14.60;99.90;;;;;;5050850;28;20028;-52
2023/08/16 06:27:25;;;;;;;4.07;2.00;;;15.80;99.90;;;;;;5051063;28;20028;-52
2023/08/16 06:29:51;;;;;;;2.47;1.50;;;15.90;99.90;;;;;;5033079;28;20474;-51
2023/08/16 06:32:17;;;;;;;3.03;1.42;;;14.80;99.90;;;;;;5039934;28;20017;-53
2023/08/16 06:34:43;;;;;;;2.70;1.70;;;16.90;99.90;;;;;;5041227;28;20052;-47
2023/08/16 06:37:09;;;;;;;3.13;1.75;;;17.50;99.90;;;;;;5043816;28;20028;-46
2023/08/16 06:39:34;;;;;;;5.93;1.60;;;18.10;99.90;;;;;;5049677;28;20037;-47
2023/08/16 06:42:00;;;;;;;3.40;1.85;;;17.00;99.90;;;;;;5050446;28;20033;-48
2023/08/16 06:44:26;;;;;;;3.40;1.58;;;19.10;99.90;;;;;;5050689;28;20385;-53
2023/08/16 06:46:52;;;;;;;3.10;1.30;;;19.10;99.90;;;;;;5050197;28;20059;-52
2023/08/16 06:49:17;;;;;;;2.65;1.10;;;19.70;99.90;;;;;;5038402;28;20033;-50
2023/08/16 06:51:43;;;;;;;1.85;0.95;;;20.00;99.90;;;;;;5040285;28;20056;-49
2023/08/16 06:54:08;;;;;;;2.00;1.17;;;20.30;99.90;;;;;;5049760;28;20044;-47
2023/08/16 06:56:34;;;;;;;1.92;1.05;;;20.60;99.90;;;;;;5050152;28;20082;-49
2023/08/16 06:59:00;;;;;;;2.33;1.35;;;21.20;99.90;;;;;;5050297;28;20020;-50
2023/08/16 07:01:26;;;;;;;5.13;1.27;;;20.40;99.90;;;;;;5046097;28;20108;-53
2023/08/16 07:03:51;;;;;;;2.22;1.02;;;20.50;99.90;;;;;;5030965;28;20109;-51
2023/08/16 07:06:18;;;;;;;2.97;1.73;;;20.50;99.90;;;;;;5043934;28;20098;-52
2023/08/16 07:08:43;;;;;;;2.40;1.45;;;20.80;99.90;;;;;;5032040;28;20045;-50
2023/08/16 07:11:09;;;;;;;2.58;1.40;;;21.10;99.90;;;;;;5030929;28;20068;-51
2023/08/16 07:13:34;;;;;;;3.08;1.25;;;21.60;99.90;;;;;;5030976;28;20029;-49
2023/08/16 07:16:00;;;;;;;3.05;1.40;;;22.10;99.90;;;;;;5030541;28;20355;-54
2023/08/16 07:18:26;;;;;;;3.58;1.63;;;22.50;99.90;;;;;;5030628;28;20087;-47
2023/08/16 07:20:51;;;;;;;3.42;1.65;;;22.60;99.90;;;;;;5030821;28;20396;-47
2023/08/16 07:23:17;;;;;;;4.80;2.08;;;22.80;99.90;;;;;;5037472;28;20029;-49
2023/08/16 07:25:43;;;;;;;3.28;1.85;;;23.30;99.90;;;;;;5050421;28;20025;-50
2023/08/16 07:28:08;;;;;;;3.95;2.05;;;23.70;99.90;;;;;;5048783;28;20029;-50
2023/08/16 07:30:37;;;;;;;5.07;2.00;;;23.80;99.90;;;;;;5050023;28;20032;-48
2023/08/16 07:33:06;;;;;;;7.20;1.80;;;23.90;99.90;;;;;;5046672;28;20110;-50
2023/08/16 07:35:31;;;;;;;2.88;1.67;;;23.60;99.90;;;;;;5044969;28;20367;-54
2023/08/16 07:37:57;;;;;;;5.90;1.20;;;23.80;99.90;;;;;;5044932;28;20104;-54
2023/08/16 07:40:23;;;;;;;4.85;1.60;;;23.70;99.90;;;;;;5049053;28;20036;-50
2023/08/16 07:42:48;;;;;;;6.00;1.63;;;23.70;99.90;;;;;;5043906;28;20116;-46
2023/08/16 07:45:14;;;;;;;11.68;2.10;;;23.70;99.90;;;;;;5040344;28;20083;-48
2023/08/16 07:47:40;;;;;;;4.45;1.65;;;23.50;99.90;;;;;;5038018;28;20061;-45
2023/08/16 07:50:06;;;;;;;5.93;1.58;;;23.30;99.90;;;;;;5039642;28;20021;-45
2023/08/16 07:52:31;;;;;;;3.08;1.60;;;23.10;99.90;;;;;;5029920;28;20127;-45
2023/08/16 07:54:57;;;;;;;4.55;1.45;;;23.20;99.90;;;;;;5050339;28;20443;-50
2023/08/16 07:57:23;;;;;;;4.95;2.00;;;23.00;99.90;;;;;;5040381;28;20070;-49
2023/08/16 07:59:48;;;;;;;3.55;1.50;;;22.60;99.90;;;;;;5040455;28;20025;-48
2023/08/16 08:02:14;;;;;;;4.32;1.80;;;21.90;99.90;;;;;;5045992;28;20434;-51
2023/08/16 08:04:40;;;;;;;5.80;2.00;;;24.00;99.90;;;;;;5043868;28;20147;-47
2023/08/16 08:07:05;;;;;;;2.80;1.27;;;24.80;99.90;;;;;;5037777;28;20305;-47
2023/08/16 08:09:34;;;;;;;4.10;1.67;;;25.10;99.90;;;;;;5044182;28;20086;-47
2023/08/16 08:12:00;;;;;;;4.32;1.42;;;25.10;99.90;;;;;;5046175;28;20047;-49
2023/08/16 08:14:25;;;;;;;5.97;1.77;;;25.30;99.90;;;;;;5040334;28;20389;-52
2023/08/16 08:16:52;;;;;;;3.17;1.48;;;25.00;99.90;;;;;;5039290;28;20104;-52
2023/08/16 08:19:17;;;;;;;4.13;1.60;;;24.60;99.90;;;;;;5045895;28;20101;-53
2023/08/16 08:21:44;;;;;;;4.35;1.63;;;24.60;99.90;;;;;;5057206;28;20124;-53
2023/08/16 08:24:10;;;;;;;3.10;1.30;;;24.80;99.90;;;;;;5052759;28;20029;-46
2023/08/16 08:26:35;;;;;;;2.35;1.30;;;24.90;99.90;;;;;;5038204;28;20048;-54
2023/08/16 08:29:01;;;;;;;5.63;1.67;;;25.10;99.90;;;;;;5034830;28;20026;-47
2023/08/16 08:31:27;;;;;;;3.97;1.60;;;25.10;99.90;;;;;;5034765;28;20100;-52
2023/08/16 08:33:52;;;;;;;2.08;1.27;;;25.30;99.90;;;;;;5033416;28;20064;-54
2023/08/16 08:36:18;;;;;;;4.10;1.58;;;25.30;99.90;;;;;;5034620;28;20169;-56
2023/08/16 08:38:44;;;;;;;4.47;1.60;;;25.60;99.90;;;;;;5037677;28;20025;-47
2023/08/16 08:41:09;;;;;;;5.88;1.65;;;25.90;99.90;;;;;;5038855;28;20060;-50
2023/08/16 08:43:39;;;;;;;1.92;1.10;;;26.10;99.90;;;;;;5038912;28;20734;-50
2023/08/16 08:46:06;;;;;;;3.20;1.38;;;28.40;99.90;;;;;;5037531;28;20046;-56
2023/08/16 08:48:32;;;;;;;2.90;1.27;;;26.60;99.90;;;;;;5033553;28;20523;-47
2023/08/16 08:50:59;;;;;;;5.05;1.48;;;26.60;99.90;;;;;;5045517;28;20079;-46
2023/08/16 08:53:25;;;;;;;2.85;1.23;;;26.90;99.90;;;;;;5035525;28;20036;-46
2023/08/16 08:55:54;;;;;;;2.92;1.38;;;27.10;99.90;;;;;;5042143;28;20033;-53
2023/08/16 08:58:20;;;;;;;4.13;1.25;;;27.10;99.90;;;;;;5042492;28;20542;-49
2023/08/16 09:00:48;;;;;;;6.53;1.55;;;27.00;99.90;;;;;;5036162;28;20075;-51
2023/08/16 09:03:17;;;;;;;3.15;1.40;;;27.00;99.90;;;;;;5038427;28;20040;-50
2023/08/16 09:05:47;;;;;;;3.97;1.30;;;28.10;99.90;;;;;;5042361;28;20426;-49
2023/08/16 09:08:15;;;;;;;2.78;1.15;;;27.10;99.90;;;;;;5041427;28;20557;-51
2023/08/16 09:10:42;;;;;;;2.58;1.30;;;27.30;99.90;;;;;;5033954;28;20033;-47
2023/08/16 09:13:11;;;;;;;2.55;0.88;;;27.40;99.90;;;;;;5040950;28;20520;-51
2023/08/16 09:15:37;;;;;;;;;;;27.40;99.90;;;;;;5042700;28;20029;-57
2023/08/16 09:18:13;;;;;;;1.73;1.08;;;27.40;99.90;;;;;;5038056;28;20265;-49
2023/08/16 09:20:42;;;;;;;3.40;1.02;;;27.30;99.90;;;;;;5034689;28;20037;-53
2023/08/16 09:23:15;;;;;;;4.13;1.27;;;27.40;99.90;;;;;;5038325;28;20044;-52
2023/08/16 09:25:41;;;;;;;2.95;1.25;;;27.40;99.90;;;;;;5052440;28;20086;-49
2023/08/16 09:28:11;;;;;;;3.15;1.40;;;27.20;99.90;;;;;;5046742;28;20104;-56
2023/08/16 09:30:37;;;;;;;3.03;1.08;;;26.60;99.90;;;;;;5040136;28;20032;-46
2023/08/16 09:33:03;;;;;;;2.35;1.10;;;27.20;99.90;;;;;;5042937;28;20025;-48
2023/08/16 09:35:38;;;;;;;4.25;1.33;;;27.30;99.90;;;;;;5051741;28;20147;-57
2023/08/16 09:38:04;;;;;;;3.78;1.08;;;27.50;99.90;;;;;;5051556;28;20029;-50
2023/08/16 09:40:30;;;;;;;2.50;1.00;;;27.80;99.90;;;;;;5040942;28;20471;-47
2023/08/16 09:43:01;;;;;;;2.53;1.00;;;27.80;99.90;;;;;;5049092;28;20033;-52
2023/08/16 09:45:34;;;;;;;2.33;0.80;;;27.80;99.90;;;;;;5051509;28;20025;-51
2023/08/16 09:48:01;;;;;;;2.05;1.10;;;27.80;99.90;;;;;;5051383;28;20095;-52
2023/08/16 09:50:28;;;;;;;3.55;1.27;;;27.60;99.90;;;;;;5051750;28;20074;-49
2023/08/16 09:52:53;;;;;;;2.00;1.20;;;27.40;99.90;;;;;;5050498;28;20436;-54
2023/08/16 09:55:26;;;;;;;1.70;0.85;;;27.10;99.90;;;;;;5040218;28;20021;-52
2023/08/16 09:57:54;;;;;;;1.77;1.00;;;28.10;99.90;;;;;;5040990;28;20029;-52
2023/08/16 10:00:22;;;;;;;1.73;0.95;;;27.90;99.90;;;;;;5032451;28;20056;-49
2023/08/16 10:02:49;;;;;;;2.50;1.02;;;28.00;99.90;;;;;;5042041;28;20037;-51
2023/08/16 10:05:16;;;;;;;2.88;1.17;;;28.20;99.90;;;;;;5051096;28;20036;-48
2023/08/16 10:07:42;;;;;;;3.85;1.10;;;28.10;99.90;;;;;;5051581;28;20021;-46
2023/08/16 10:10:09;;;;;;;2.28;1.15;;;28.50;99.90;;;;;;5051191;28;20029;-52
2023/08/16 10:12:38;;;;;;;2.08;1.17;;;28.90;99.90;;;;;;5050883;28;20087;-52
2023/08/16 10:15:05;;;;;;;3.20;1.25;;;29.50;99.90;;;;;;5049487;28;20025;-46
2023/08/16 10:17:32;;;;;;;2.00;1.20;;;30.10;99.90;;;;;;5051065;28;20132;-43
2023/08/16 10:20:00;;;;;;;2.88;1.25;;;30.00;99.90;;;;;;5051329;28;20600;-43
2023/08/16 10:22:35;;;;;;;1.73;1.08;;;31.40;99.90;;;;;;5050696;28;20076;-49
2023/08/16 10:25:10;;;;;;;1.80;1.00;;;30.20;99.90;;;;;;5038712;28;20040;-46
2023/08/16 10:27:37;;;;;;;3.42;1.00;;;30.20;98.70;;;;;;5036017;28;20119;-51
2023/08/16 10:30:07;;;;;;;3.08;1.17;;;30.60;99.30;;;;;;5029697;28;20124;-46
2023/08/16 10:32:36;;;;;;;1.80;1.20;;;31.30;98.90;;;;;;5032388;28;20025;-45
2023/08/16 10:35:02;;;;;;;2.53;1.00;;;31.30;98.60;;;;;;5037953;28;20112;-44
2023/08/16 10:37:28;;;;;;;1.73;1.00;;;31.10;97.30;;;;;;5044359;28;20029;-43
2023/08/16 10:39:54;;;;;;;2.42;1.00;;;30.30;97.40;;;;;;5050823;28;20363;-53
2023/08/16 10:42:26;;;;;;;2.60;1.30;;;29.60;99.20;;;;;;5036841;28;20072;-45
2023/08/16 10:44:52;;;;;;;2.88;1.20;;;28.50;98.90;;;;;;5047683;28;20036;-49
2023/08/16 10:47:28;;;;;;;1.80;1.00;;;28.90;99.10;;;;;;5045450;28;20506;-45
2023/08/16 10:49:54;;;;;;;2.55;1.23;;;28.60;99.20;;;;;;5049331;28;20029;-49
2023/08/16 10:52:27;;;;;;;0.85;0.75;;;29.20;99.90;;;;;;5050603;28;20159;-49
2023/08/16 10:54:54;;;;;;;2.60;1.23;;;29.90;97.70;;;;;;5050314;28;20033;-48
2023/08/16 10:57:25;;;;;;;1.63;1.15;;;30.00;99.00;;;;;;5050783;28;20100;-51
2023/08/16 11:00:01;;;;;;;1.63;0.90;;;29.40;97.70;;;;;;5043330;28;20391;-48
2023/08/16 11:02:30;;;;;;;2.50;1.20;;;27.90;98.40;;;;;;5037933;28;20452;-48
2023/08/16 11:04:56;;;;;;;;;;;28.10;99.30;;;;;;5034578;28;20030;-47
2023/08/16 11:07:22;;;;;;;1.65;0.90;;;27.30;99.40;;;;;;5030364;28;19916;-47
2023/08/16 11:09:48;;;;;;;2.72;1.23;;;27.80;99.40;;;;;;5039953;28;20082;-52
2023/08/16 11:12:15;;;;;;;2.47;0.80;;;27.60;99.80;;;;;;5061233;28;20116;-52
2023/08/16 11:14:43;;;;;;;1.02;0.80;;;28.00;98.70;;;;;;5037823;28;20114;-46
2023/08/16 11:17:09;;;;;;;2.47;1.00;;;28.20;97.70;;;;;;5039339;28;20013;-49
2023/08/16 11:19:34;;;;;;;2.05;0.90;;;28.50;97.70;;;;;;5038959;28;20091;-53
2023/08/16 11:22:05;;;;;;;1.45;0.80;;;29.00;95.90;;;;;;5037965;28;20072;-50
2023/08/16 11:24:31;;;;;;;1.67;0.90;;;29.00;96.00;;;;;;5047567;28;20033;-52
2023/08/16 11:26:57;;;;;;;1.02;0.70;;;28.80;96.50;;;;;;5051459;28;20029;-44
2023/08/16 11:29:22;;;;;;;1.73;0.90;;;28.30;98.40;;;;;;5054199;28;20358;-52
2023/08/16 11:31:50;;;;;;;3.45;0.98;;;29.00;98.00;;;;;;5054224;28;20477;-53
2023/08/16 11:34:15;;;;;;;0.80;0.55;;;29.50;97.20;;;;;;5054283;28;20086;-50
2023/08/16 11:36:41;;;;;;;2.78;0.95;;;29.80;95.90;;;;;;5036838;28;20025;-51
2023/08/16 11:39:09;;;;;;;1.85;0.82;;;30.30;94.20;;;;;;5034647;28;20064;-50
2023/08/16 11:41:36;;;;;;;1.13;0.73;;;30.50;93.10;;;;;;5034857;28;20045;-54
2023/08/16 11:44:01;;;;;;;1.10;0.75;;;29.70;93.00;;;;;;5034218;28;20036;-47
2023/08/16 11:46:27;;;;;;;1.30;0.73;;;29.30;91.70;;;;;;5045342;28;20026;-45
2023/08/16 11:48:54;;;;;;;1.77;0.90;;;29.50;91.70;;;;;;5046356;28;20040;-54
2023/08/16 11:51:21;;;;;;;1.33;0.80;;;30.00;92.00;;;;;;5040606;28;20720;-48
2023/08/16 11:53:46;;;;;;;1.70;0.70;;;29.40;91.30;;;;;;5033993;28;20018;-48
2023/08/16 11:56:12;;;;;;;1.48;0.60;;;29.50;92.30;;;;;;5034325;28;20064;-47
2023/08/16 11:58:45;;;;;;;0.43;0.40;;;29.60;92.30;;;;;;5038292;28;20021;-48
2023/08/16 12:01:15;;;;;;;0.55;0.50;;;29.40;91.90;;;;;;5042468;28;20037;-52
2023/08/16 12:03:43;;;;;;;1.08;0.60;;;29.70;90.90;;;;;;5035044;28;20217;-47
2023/08/16 12:06:09;;;;;;;1.27;0.80;;;29.20;91.80;;;;;;5048796;28;20032;-54
2023/08/16 12:08:35;;;;;;;1.95;0.73;;;29.30;93.50;;;;;;5045075;28;20548;-49
2023/08/16 12:11:02;;;;;;;2.05;0.60;;;29.60;91.10;;;;;;5034157;28;20454;-53
2023/08/16 12:13:28;;;;;;;1.25;0.60;;;29.30;92.00;;;;;;5044830;28;20508;-51
2023/08/16 12:15:54;;;;;;;1.92;0.77;;;29.40;91.50;;;;;;5038712;28;20037;-51
2023/08/16 12:18:21;;;;;;;0.90;0.70;;;29.00;93.30;;;;;;5044953;28;20029;-48
2023/08/16 12:20:49;;;;;;;1.40;0.60;;;29.20;91.70;;;;;;5037237;28;20025;-51
2023/08/16 12:23:17;;;;;;;1.80;0.70;;;29.20;92.00;;;;;;5053575;28;20043;-44
2023/08/16 12:25:43;;;;;;;1.27;0.90;;;29.10;92.90;;;;;;5045652;28;20028;-46
2023/08/16 12:28:08;;;;;;;2.22;0.88;;;28.90;91.60;;;;;;5050833;28;20029;-48
2023/08/16 12:30:34;;;;;;;1.38;0.90;;;28.50;93.40;;;;;;5046273;28;20036;-46
2023/08/16 12:32:59;;;;;;;1.63;1.42;;;26.00;93.00;;;;;;5044396;28;20014;-52
2023/08/16 12:35:25;;;;;;;3.47;1.00;;;27.30;94.30;;;;;;5044414;28;20382;-46
2023/08/16 12:37:51;;;;;;;2.15;1.10;;;26.90;95.10;;;;;;5045544;28;20027;-47
2023/08/16 12:40:16;;;;;;;2.33;0.85;;;28.20;95.90;;;;;;5043706;28;20051;-48
2023/08/16 12:42:42;;;;;;;4.70;1.10;;;27.90;95.60;;;;;;5046073;28;20048;-44
2023/08/16 12:45:09;;;;;;;2.00;0.80;;;28.10;94.90;;;;;;5042041;28;20025;-44